CZ-0103 weather

Střemy
Central Bohemian Region, Czech Republic

Public forecast

Using degrees Celsius for public forecast. Weather courtesy of forecast.io.

Closest aviation weather report (METAR) to Střemy

Closest report is Vodochody Airport, 12.3 nm (22.7 km) SW. Retrieved 2020/02/17 06:30 UTC (0 seconds ago):

LKVO 170630Z 18008KT 9999 FEW028 BKN043 09/03 Q1015

Closest aviation forecast (TAF) to Střemy

Closest forecast is Kbely Air Base, 15.9 nm (29.4 km) S. Retrieved 2020/02/17 06:00 UTC (19 minutes ago):

TAF LKKB 170500Z 1706/1806 21010KT CAVOK BECMG 1707/1709 19014KT BKN035 TEMPO 1712/1720 8000 RA BKN025 BECMG 1720/1722 CAVOK TEMPO 1800/1806 20016G26KT